Time;durP1;ratioP1;P1;durP2;ratioP2;P2;SDS_P1;SDS_P2;PMS_P1;PMS_P2;Temp;Humidity;BMP_temperature;BMP_pressure;BME280_temperature;BME280_humidity;BME280_pressure;Samples;Min_cycle;Max_cycle;Signal;HPM_P1;HPM_P2
2022/04/24 00:02:37;;;;;;;14.80;13.40;;;14.30;32.10;;;;;;10411317;28;20226;-72
2022/04/24 00:07:43;;;;;;;15.50;14.07;;;14.20;32.20;;;;;;10410374;28;20253;-72
2022/04/24 00:12:46;;;;;;;15.17;13.77;;;14.10;32.70;;;;;;10411002;28;20717;-72
2022/04/24 00:17:50;;;;;;;15.70;14.20;;;14.10;32.50;;;;;;10410753;28;20229;-72
2022/04/24 00:22:54;;;;;;;16.20;14.70;;;14.10;32.50;;;;;;10410439;28;20702;-72
2022/04/24 00:28:00;;;;;;;15.90;14.50;;;14.00;33.00;;;;;;10410476;28;20225;-72
2022/04/24 00:33:04;;;;;;;16.77;15.27;;;14.00;32.60;;;;;;10409768;28;20276;-72
2022/04/24 00:38:08;;;;;;;16.13;14.50;;;14.00;32.80;;;;;;10409871;28;20265;-72
2022/04/24 00:43:11;;;;;;;16.23;14.70;;;14.00;33.20;;;;;;10409707;28;20233;-72
2022/04/24 00:48:14;;;;;;;17.10;15.47;;;13.90;32.90;;;;;;10409646;28;20639;-72
2022/04/24 00:53:39;;;;;;;17.47;15.87;;;14.00;33.00;;;;;;10409060;28;20232;-72
2022/04/24 00:58:42;;;;;;;16.50;15.00;;;14.00;33.50;;;;;;10408787;28;20713;-72
2022/04/24 01:03:45;;;;;;;16.80;15.10;;;13.90;33.10;;;;;;10408899;28;20221;-72
2022/04/24 01:08:50;;;;;;;17.97;16.27;;;13.90;33.20;;;;;;10408665;28;20316;-72
2022/04/24 01:13:53;;;;;;;17.13;15.53;;;13.90;33.70;;;;;;10439967;28;20236;-72
2022/04/24 01:18:58;;;;;;;17.20;15.60;;;13.90;33.30;;;;;;10448538;28;20701;-72
2022/04/24 01:24:05;;;;;;;15.90;14.40;;;13.90;33.70;;;;;;10449383;28;20905;-72
2022/04/24 01:29:09;;;;;;;15.33;13.93;;;13.90;34.10;;;;;;10448756;28;20776;-72
2022/04/24 01:34:13;;;;;;;15.73;14.23;;;13.90;33.40;;;;;;10449282;28;20233;-72
2022/04/24 01:39:18;;;;;;;17.03;15.30;;;13.90;33.40;;;;;;10448954;28;20233;-72
2022/04/24 01:44:21;;;;;;;16.33;14.83;;;13.90;33.80;;;;;;10448471;28;20237;-72
2022/04/24 01:49:24;;;;;;;15.70;14.10;;;13.90;33.50;;;;;;10448461;28;20235;-72
2022/04/24 01:54:29;;;;;;;15.30;13.87;;;14.00;33.70;;;;;;10448198;28;20231;-72
2022/04/24 01:59:32;;;;;;;16.83;15.20;;;13.90;33.90;;;;;;10447939;28;20712;-72
2022/04/24 02:04:35;;;;;;;15.60;14.17;;;13.90;33.60;;;;;;10448246;28;20232;-72
2022/04/24 02:09:40;;;;;;;15.70;14.30;;;14.00;33.70;;;;;;10447905;28;20228;-72
2022/04/24 02:14:43;;;;;;;15.33;13.93;;;13.90;33.90;;;;;;10447695;28;20227;-72
2022/04/24 02:19:46;;;;;;;16.27;14.80;;;13.90;33.70;;;;;;10447410;28;20235;-72
2022/04/24 02:24:53;;;;;;;16.33;14.80;;;13.90;33.80;;;;;;10447966;28;20228;-72
2022/04/24 02:29:59;;;;;;;16.80;15.20;;;13.90;34.50;;;;;;10445636;22;20234;-72
2022/04/24 02:35:02;;;;;;;15.53;14.13;;;13.90;34.00;;;;;;10375612;28;20234;-73
2022/04/24 02:40:09;;;;;;;16.00;14.50;;;13.90;34.00;;;;;;10374911;28;20222;-72
2022/04/24 02:45:13;;;;;;;15.83;14.33;;;13.90;34.50;;;;;;10373559;28;20229;-72
2022/04/24 02:50:16;;;;;;;15.17;13.77;;;13.90;34.00;;;;;;10375581;28;20349;-72
2022/04/24 02:55:22;;;;;;;14.70;13.30;;;13.90;34.20;;;;;;10378129;28;20229;-72
2022/04/24 03:00:38;;;;;;;15.30;13.90;;;13.90;34.50;;;;;;10376324;28;20238;-72
2022/04/24 03:05:42;;;;;;;14.77;13.40;;;14.00;34.40;;;;;;10373962;28;20230;-71
2022/04/24 03:10:53;;;;;;;15.27;13.70;;;14.00;34.30;;;;;;10378392;28;20737;-72
2022/04/24 03:15:56;;;;;;;15.73;14.23;;;14.00;34.60;;;;;;10376097;28;20217;-72
2022/04/24 03:20:59;;;;;;;15.20;13.83;;;14.00;34.20;;;;;;10380326;28;20611;-72
2022/04/24 03:26:04;;;;;;;13.20;12.00;;;14.00;34.20;;;;;;10376286;28;20230;-72
2022/04/24 03:31:07;;;;;;;15.10;13.67;;;14.00;34.50;;;;;;10372248;28;20218;-72
2022/04/24 03:36:11;;;;;;;14.43;13.13;;;14.00;34.40;;;;;;10371929;28;20621;-72
2022/04/24 03:41:16;;;;;;;16.13;14.63;;;14.10;34.50;;;;;;10382932;28;20234;-72
2022/04/24 03:46:19;;;;;;;14.83;13.33;;;14.10;34.90;;;;;;10381865;28;20230;-72
2022/04/24 03:51:22;;;;;;;15.73;14.23;;;14.10;34.60;;;;;;10384498;28;20882;-72
2022/04/24 03:56:31;;;;;;;15.93;14.43;;;14.10;34.70;;;;;;10381140;28;20269;-72
2022/04/24 04:01:35;;;;;;;16.33;14.83;;;14.10;35.00;;;;;;10387881;28;20218;-72
2022/04/24 04:06:38;;;;;;;17.03;15.43;;;14.00;34.80;;;;;;10385385;28;20232;-72
2022/04/24 04:11:43;;;;;;;17.50;15.87;;;13.90;34.70;;;;;;10382734;28;20741;-72
2022/04/24 04:16:46;;;;;;;18.03;16.27;;;13.80;35.40;;;;;;10379924;28;20222;-72
2022/04/24 04:21:50;;;;;;;19.03;17.03;;;13.70;35.20;;;;;;10381924;28;20711;-72
2022/04/24 04:26:56;;;;;;;17.37;15.67;;;13.60;35.50;;;;;;10380239;28;20236;-72
2022/04/24 04:32:00;;;;;;;16.80;15.20;;;13.60;35.90;;;;;;10374955;28;20265;-72
2022/04/24 04:37:03;;;;;;;16.13;14.63;;;13.60;35.40;;;;;;10384332;28;20238;-73
2022/04/24 04:42:08;;;;;;;15.10;13.70;;;13.60;35.50;;;;;;10379156;28;20228;-71
2022/04/24 04:47:11;;;;;;;15.60;14.00;;;13.60;36.10;;;;;;10381165;28;20228;-72
2022/04/24 04:52:17;;;;;;;15.17;13.77;;;13.50;35.60;;;;;;10381982;28;20783;-72
2022/04/24 04:57:21;;;;;;;14.07;12.87;;;13.50;35.60;;;;;;10377878;28;20734;-72
2022/04/24 05:02:25;;;;;;;14.70;13.30;;;13.50;36.10;;;;;;10379290;28;20739;-72
2022/04/24 05:07:28;;;;;;;13.80;12.53;;;13.50;35.80;;;;;;10378886;28;20223;-72
2022/04/24 05:12:32;;;;;;;13.57;12.33;;;13.50;35.90;;;;;;10377736;28;20233;-72
2022/04/24 05:17:37;;;;;;;13.70;12.50;;;13.60;36.40;;;;;;10378153;28;20227;-72
2022/04/24 05:22:44;;;;;;;14.00;12.77;;;13.60;36.10;;;;;;10377307;28;20218;-76
2022/04/24 05:28:02;;;;;;;13.10;11.90;;;13.60;36.20;;;;;;10382035;28;20692;-77
2022/04/24 05:33:07;;;;;;;14.90;13.50;;;13.60;37.00;;;;;;10377793;28;20221;-72
2022/04/24 05:38:10;;;;;;;13.87;12.67;;;13.50;36.10;;;;;;10369348;28;20226;-71
2022/04/24 05:43:14;;;;;;;15.00;13.70;;;13.50;36.30;;;;;;10373474;28;20848;-71
2022/04/24 05:48:18;;;;;;;16.20;14.70;;;13.60;36.90;;;;;;10369386;28;20226;-71
2022/04/24 05:53:21;;;;;;;16.00;14.50;;;13.60;36.30;;;;;;10377306;28;20234;-70
2022/04/24 05:58:26;;;;;;;17.37;15.73;;;13.60;36.40;;;;;;10373169;28;20718;-71
2022/04/24 06:03:29;;;;;;;17.87;16.20;;;13.60;37.00;;;;;;10372427;28;20225;-71
2022/04/24 06:08:32;;;;;;;17.97;16.27;;;13.50;36.90;;;;;;10372886;28;20233;-71
2022/04/24 06:13:37;;;;;;;19.03;17.23;;;13.40;37.00;;;;;;10374571;28;20226;-71
2022/04/24 06:18:40;;;;;;;18.37;16.67;;;13.40;38.50;;;;;;10375389;28;20287;-74
2022/04/24 06:23:43;;;;;;;17.73;16.13;;;13.40;38.00;;;;;;10379037;28;20226;-74
2022/04/24 06:28:48;;;;;;;17.30;15.50;;;13.30;37.90;;;;;;10376877;28;20252;-75
2022/04/24 06:33:51;;;;;;;17.57;15.87;;;13.30;38.30;;;;;;10377263;28;20217;-75
2022/04/24 06:38:54;;;;;;;17.23;15.63;;;13.30;38.00;;;;;;10379631;28;20225;-75
2022/04/24 06:43:59;;;;;;;17.20;15.53;;;13.20;38.30;;;;;;10378659;28;20218;-75
2022/04/24 06:49:02;;;;;;;15.27;13.87;;;13.20;38.80;;;;;;10375131;28;20240;-76
2022/04/24 06:54:05;;;;;;;16.77;15.27;;;13.10;38.20;;;;;;10378667;28;20361;-75
2022/04/24 06:59:09;;;;;;;17.40;15.57;;;13.00;38.60;;;;;;10376510;28;20234;-76
2022/04/24 07:04:13;;;;;;;18.90;17.10;;;13.10;39.10;;;;;;10372954;28;20448;-76
2022/04/24 07:09:16;;;;;;;17.73;16.03;;;13.10;38.90;;;;;;10377190;28;20275;-72
2022/04/24 07:14:20;;;;;;;17.30;15.50;;;13.20;38.90;;;;;;10382801;28;20330;-76
2022/04/24 07:19:24;;;;;;;16.10;14.60;;;13.30;39.40;;;;;;10382774;28;20229;-72
2022/04/24 07:24:27;;;;;;;17.63;16.03;;;13.30;38.80;;;;;;10376572;28;20253;-76
2022/04/24 07:29:31;;;;;;;17.93;16.17;;;13.30;38.80;;;;;;10384349;28;20716;-76
2022/04/24 07:34:34;;;;;;;15.80;14.30;;;13.40;39.40;;;;;;10382065;28;20218;-75
2022/04/24 07:39:38;;;;;;;17.40;15.80;;;13.50;38.90;;;;;;10383266;28;20893;-76
2022/04/24 07:44:42;;;;;;;15.97;14.47;;;13.50;38.80;;;;;;10379723;28;20308;-76
2022/04/24 07:49:46;;;;;;;16.23;14.73;;;13.60;39.30;;;;;;10379726;28;20221;-80
2022/04/24 07:54:51;;;;;;;14.97;13.60;;;13.60;39.00;;;;;;10378764;28;21830;-76
2022/04/24 07:59:58;;;;;;;15.20;13.70;;;13.60;38.90;;;;;;10383390;28;20288;-76
2022/04/24 08:05:01;;;;;;;14.87;13.43;;;13.70;39.30;;;;;;10381085;28;20891;-80
2022/04/24 08:10:05;;;;;;;14.77;13.27;;;13.70;38.80;;;;;;10382802;28;20712;-76
2022/04/24 08:15:11;;;;;;;15.90;14.30;;;13.70;39.20;;;;;;10383101;28;20262;-76
2022/04/24 08:20:16;;;;;;;13.07;11.83;;;13.70;40.30;;;;;;10385744;28;20230;-76
2022/04/24 08:25:21;;;;;;;13.50;12.30;;;13.60;40.10;;;;;;10384733;28;20728;-76
2022/04/24 08:30:25;;;;;;;10.40;9.50;;;13.50;40.50;;;;;;10380507;28;20234;-76
2022/04/24 08:35:29;;;;;;;8.57;7.77;;;13.50;40.80;;;;;;10369406;28;20236;-76
2022/04/24 08:40:32;;;;;;;7.20;6.60;;;13.50;39.90;;;;;;10385050;28;20252;-76
2022/04/24 08:45:41;;;;;;;6.93;6.33;;;13.60;39.80;;;;;;10379498;28;20226;-76
2022/04/24 08:50:45;;;;;;;6.63;6.13;;;13.70;40.60;;;;;;10389700;28;20757;-76
2022/04/24 08:55:51;;;;;;;6.10;5.60;;;13.90;40.40;;;;;;10390383;28;20248;-77
2022/04/24 09:00:56;;;;;;;6.10;5.60;;;14.10;40.10;;;;;;10382272;28;20745;-78
2022/04/24 09:05:59;;;;;;;5.63;5.13;;;14.30;40.00;;;;;;10398187;23;20292;-76
2022/04/24 09:11:11;;;;;;;4.70;4.30;;;14.50;39.70;;;;;;10362559;28;20233;-76
2022/04/24 09:16:19;;;;;;;4.60;4.20;;;14.70;39.80;;;;;;10376102;28;20221;-75
2022/04/24 09:21:22;;;;;;;2.80;2.60;;;14.90;39.20;;;;;;10378802;28;20320;-75
2022/04/24 09:26:30;;;;;;;3.60;3.30;;;15.10;38.40;;;;;;10375193;28;20317;-75
2022/04/24 09:31:49;;;;;;;2.60;2.40;;;15.30;38.40;;;;;;10374940;28;20282;-74
2022/04/24 09:37:01;;;;;;;2.67;2.40;;;15.30;38.20;;;;;;10369723;28;20230;-75
2022/04/24 10:08:25;;;;;;;2.87;2.67;;;15.50;37.30;;;;;;10032344;29;20759;-74
2022/04/24 10:13:37;;;;;;;3.20;3.00;;;15.60;37.50;;;;;;10174019;28;20224;-76
2022/04/24 10:24:40;;;;;;;3.37;3.07;;;15.70;37.10;;;;;;10179998;29;20860;-74
2022/04/24 10:29:53;;;;;;;2.70;2.50;;;15.70;37.00;;;;;;10196807;28;20310;-75
2022/04/24 10:34:58;;;;;;;2.50;2.30;;;15.70;36.50;;;;;;10249343;28;20270;-75
2022/04/24 10:40:16;;;;;;;2.30;2.10;;;15.90;36.90;;;;;;10359375;28;20338;-74
2022/04/24 10:45:25;;;;;;;1.93;1.83;;;16.00;36.80;;;;;;10366884;28;20230;-75
2022/04/24 10:50:33;;;;;;;2.40;2.20;;;16.20;36.60;;;;;;10372353;28;20656;-75
2022/04/24 10:55:42;;;;;;;1.80;1.70;;;16.20;36.80;;;;;;10372145;28;20233;-80
2022/04/24 11:00:52;;;;;;;1.80;1.70;;;16.40;36.00;;;;;;10358918;28;20319;-72
2022/04/24 11:06:00;;;;;;;1.77;1.67;;;16.50;36.60;;;;;;10364412;28;20235;-72
2022/04/24 11:11:07;;;;;;;1.60;1.50;;;16.50;35.50;;;;;;10377559;28;20230;-73
2022/04/24 11:16:13;;;;;;;2.10;1.60;;;16.30;35.50;;;;;;10377631;28;20233;-73
2022/04/24 11:21:23;;;;;;;2.03;1.60;;;16.50;35.70;;;;;;10379578;28;20735;-72
2022/04/24 11:26:34;;;;;;;1.40;1.30;;;16.50;35.60;;;;;;10356623;28;20428;-73
2022/04/24 11:31:49;;;;;;;0.97;0.97;;;16.60;35.20;;;;;;10372427;28;20313;-73
2022/04/24 11:36:58;;;;;;;0.80;0.80;;;16.60;33.50;;;;;;10373888;28;20228;-72
2022/04/24 11:42:05;;;;;;;0.80;0.80;;;16.60;33.60;;;;;;10360597;28;20848;-74
2022/04/24 11:58:45;;;;;;;0.87;0.83;;;16.40;34.80;;;;;;10358804;28;20317;-70
2022/04/24 12:03:49;;;;;;;0.60;0.60;;;16.40;34.50;;;;;;10356069;28;20225;-74
2022/04/24 12:41:00;;;;;;;0.70;0.70;;;16.40;33.70;;;;;;10697632;23;20230;-73
2022/04/24 12:52:47;;;;;;;1.03;0.67;;;16.50;33.40;;;;;;10031759;29;20243;-78
2022/04/24 12:58:02;;;;;;;0.73;0.70;;;16.60;33.50;;;;;;10200403;28;20268;-75
2022/04/24 13:03:16;;;;;;;0.70;0.70;;;16.70;33.80;;;;;;10208740;28;20463;-74
2022/04/24 13:08:56;;;;;;;0.73;0.70;;;16.60;33.60;;;;;;10182971;28;20247;-75
2022/04/24 13:19:38;;;;;;;0.60;0.60;;;16.60;33.50;;;;;;10323524;28;20610;-71
2022/04/24 13:24:41;;;;;;;0.60;0.60;;;16.50;33.40;;;;;;10326582;28;20230;-72
2022/04/24 13:29:44;;;;;;;0.93;0.73;;;16.40;33.50;;;;;;10460462;23;20226;-75
2022/04/24 13:35:02;;;;;;;0.60;0.60;;;16.50;34.60;;;;;;10250648;28;20236;-77
2022/04/24 13:46:59;;;;;;;1.07;1.00;;;16.60;33.80;;;;;;10217819;28;20239;-72
2022/04/24 13:52:04;;;;;;;0.50;0.50;;;16.50;33.90;;;;;;10211146;28;20251;-78
2022/04/24 13:58:08;;;;;;;;;;;;;;;;;;;;;
2022/04/24 14:04:07;;;;;;;0.60;0.60;;;16.40;34.20;;;;;;10190807;28;20287;-74
2022/04/24 14:09:27;;;;;;;0.60;0.60;;;16.30;34.60;;;;;;10254029;28;20995;-72
2022/04/24 14:14:32;;;;;;;0.70;0.70;;;16.20;35.30;;;;;;10252286;28;20228;-73
2022/04/24 14:19:38;;;;;;;0.60;0.60;;;16.30;35.20;;;;;;10263442;28;20228;-75
2022/04/24 14:24:43;;;;;;;0.60;0.60;;;16.30;35.40;;;;;;10267607;28;20331;-75
2022/04/24 14:29:50;;;;;;;0.70;0.70;;;16.20;35.30;;;;;;10238560;28;20228;-75
2022/04/24 14:34:57;;;;;;;0.60;0.60;;;16.20;35.20;;;;;;10262141;28;20712;-79
2022/04/24 14:40:02;;;;;;;0.60;0.60;;;16.20;35.40;;;;;;10271001;28;20228;-79
2022/04/24 14:45:10;;;;;;;0.60;0.60;;;16.10;35.40;;;;;;10263688;28;20726;-80
2022/04/24 14:55:45;;;;;;;0.83;0.60;;;16.00;35.30;;;;;;10270846;28;20239;-81
2022/04/24 15:00:49;;;;;;;0.67;0.67;;;16.10;34.80;;;;;;10267553;28;20235;-80
2022/04/24 15:05:55;;;;;;;0.50;0.50;;;16.00;34.60;;;;;;10266451;28;20713;-80
2022/04/24 15:11:01;;;;;;;1.13;0.70;;;15.90;34.60;;;;;;10268426;28;20315;-80
2022/04/24 15:16:05;;;;;;;0.70;0.70;;;15.80;34.90;;;;;;10264741;28;20231;-80
2022/04/24 15:21:09;;;;;;;0.70;0.70;;;15.70;34.70;;;;;;10270584;28;20645;-80
2022/04/24 15:26:19;;;;;;;0.70;0.70;;;15.70;35.30;;;;;;10271249;28;20236;-76
2022/04/24 15:31:29;;;;;;;1.17;0.80;;;15.70;36.10;;;;;;10270360;28;20231;-75
2022/04/24 15:36:34;;;;;;;0.63;0.63;;;15.70;35.50;;;;;;10272291;28;20263;-72
2022/04/24 15:41:39;;;;;;;0.60;0.60;;;15.70;35.90;;;;;;10271649;28;20239;-72
2022/04/24 15:47:02;;;;;;;0.50;0.50;;;15.60;36.00;;;;;;10269263;28;20240;-73
2022/04/24 15:52:08;;;;;;;0.77;0.70;;;15.70;36.40;;;;;;10221343;28;21153;-73
2022/04/24 16:03:15;;;;;;;0.60;0.60;;;15.70;36.60;;;;;;10214149;28;20239;-74
2022/04/24 16:08:23;;;;;;;1.23;0.80;;;15.90;36.50;;;;;;10256622;28;20247;-72
2022/04/24 16:13:28;;;;;;;0.70;0.70;;;15.90;36.00;;;;;;10284066;28;20231;-72
2022/04/24 16:18:32;;;;;;;1.40;1.30;;;15.80;36.20;;;;;;10331343;23;20227;-73
2022/04/24 16:23:46;;;;;;;0.80;0.80;;;15.70;36.10;;;;;;10309102;28;20317;-73
2022/04/24 16:28:54;;;;;;;0.70;0.70;;;15.60;36.10;;;;;;10257747;28;20264;-72
2022/04/24 16:34:08;;;;;;;0.90;0.90;;;15.50;36.50;;;;;;10258002;28;20238;-73
2022/04/24 16:39:53;;;;;;;1.10;1.07;;;15.40;36.50;;;;;;10257757;28;20355;-74
2022/04/24 16:45:25;;;;;;;1.27;0.90;;;15.30;36.70;;;;;;10218692;28;20239;-73
2022/04/24 17:01:20;;;;;;;0.90;0.83;;;14.80;37.00;;;;;;10250484;28;20223;-73
2022/04/24 17:06:28;;;;;;;0.80;0.80;;;14.70;36.80;;;;;;10243528;28;20246;-73
2022/04/24 17:42:30;;;;;;;1.30;1.30;;;14.30;37.10;;;;;;10379608;23;20318;-77
2022/04/24 17:47:36;;;;;;;1.70;1.60;;;14.30;37.70;;;;;;10263601;28;20246;-77
2022/04/24 17:52:42;;;;;;;2.07;1.97;;;14.30;37.70;;;;;;10270809;28;20227;-76
2022/04/24 17:57:47;;;;;;;1.50;1.40;;;14.20;37.60;;;;;;10267063;28;20255;-77
2022/04/24 18:02:50;;;;;;;2.20;2.10;;;14.20;38.00;;;;;;10267590;28;20235;-77
2022/04/24 18:07:55;;;;;;;2.80;2.60;;;14.20;37.70;;;;;;10261138;28;20230;-77
2022/04/24 18:13:01;;;;;;;2.60;2.40;;;14.20;37.80;;;;;;10267285;28;20228;-77
2022/04/24 18:18:05;;;;;;;2.27;2.17;;;14.10;38.10;;;;;;10264269;28;20239;-76
2022/04/24 18:23:08;;;;;;;1.10;1.10;;;14.10;37.70;;;;;;10261874;28;20351;-75
2022/04/24 18:28:13;;;;;;;1.70;1.60;;;14.10;37.70;;;;;;10265081;28;20319;-76
2022/04/24 18:33:18;;;;;;;1.83;1.73;;;14.10;38.20;;;;;;10263929;28;20354;-76
2022/04/24 18:38:21;;;;;;;2.20;2.10;;;14.10;38.00;;;;;;10261713;28;20291;-75
2022/04/24 18:43:26;;;;;;;1.63;1.40;;;14.10;38.10;;;;;;10262820;28;20280;-76
2022/04/24 18:48:29;;;;;;;1.70;1.60;;;14.10;38.40;;;;;;10268069;28;20231;-76
2022/04/24 18:53:33;;;;;;;2.10;2.00;;;14.10;38.10;;;;;;10265002;28;20244;-75
2022/04/24 18:58:42;;;;;;;1.53;1.40;;;14.10;38.20;;;;;;10268995;28;20815;-76
2022/04/24 19:07:32;;;;;;;2.20;1.40;;;14.10;38.50;;;;;;10263999;28;20988;-73
2022/04/24 19:09:14;;;;;;;1.23;1.10;;;14.20;38.20;;;;;;10259506;28;20232;-73
2022/04/24 19:14:19;;;;;;;1.30;1.30;;;14.20;38.20;;;;;;10265546;28;20291;-73
2022/04/24 19:19:22;;;;;;;2.20;2.00;;;14.20;38.40;;;;;;10273339;28;20235;-73
2022/04/24 19:24:26;;;;;;;1.67;1.20;;;14.30;38.20;;;;;;10266714;28;20248;-74
2022/04/24 19:29:31;;;;;;;1.20;1.20;;;14.30;38.00;;;;;;10272109;28;20656;-74
2022/04/24 19:34:36;;;;;;;1.77;1.53;;;14.20;38.30;;;;;;10263843;28;20314;-74
2022/04/24 19:39:39;;;;;;;1.00;0.90;;;14.20;38.20;;;;;;10270690;28;20712;-75
2022/04/24 19:44:44;;;;;;;1.03;1.03;;;14.10;38.10;;;;;;10268893;28;20230;-75
2022/04/24 19:49:48;;;;;;;0.87;0.87;;;14.00;38.50;;;;;;10270320;28;20316;-76
2022/04/24 19:54:51;;;;;;;0.80;0.70;;;13.90;38.30;;;;;;10271795;28;20323;-74
2022/04/24 19:59:56;;;;;;;1.80;1.70;;;13.80;38.30;;;;;;10271132;28;20238;-74
2022/04/24 20:04:59;;;;;;;0.90;0.90;;;13.80;38.80;;;;;;10264586;28;20240;-74
2022/04/24 20:10:05;;;;;;;0.87;0.87;;;13.70;38.50;;;;;;10264994;28;20662;-74
2022/04/24 20:15:10;;;;;;;3.93;2.50;;;13.70;38.80;;;;;;10270688;28;21066;-74
2022/04/24 20:20:13;;;;;;;2.10;1.90;;;13.70;39.20;;;;;;10265056;28;20315;-75
2022/04/24 20:25:17;;;;;;;2.43;1.90;;;13.60;38.80;;;;;;10263646;28;20227;-73
2022/04/24 20:30:22;;;;;;;4.83;3.80;;;13.60;39.00;;;;;;10265111;28;20232;-73
2022/04/24 20:35:27;;;;;;;3.40;3.03;;;13.60;39.40;;;;;;10265167;28;20248;-74
2022/04/24 20:40:30;;;;;;;4.63;3.50;;;13.50;39.00;;;;;;10264814;28;20320;-74
2022/04/24 20:45:35;;;;;;;3.30;3.00;;;13.50;39.30;;;;;;10266125;28;20274;-74
2022/04/24 20:50:39;;;;;;;2.43;2.23;;;13.40;39.80;;;;;;10261201;28;20234;-74
2022/04/24 20:55:42;;;;;;;1.87;1.77;;;13.50;39.50;;;;;;10259451;28;21042;-74
2022/04/24 21:00:48;;;;;;;1.97;1.87;;;13.40;39.30;;;;;;10261183;28;20227;-74
2022/04/24 21:05:52;;;;;;;2.57;2.37;;;13.40;39.90;;;;;;10264167;28;20450;-74
2022/04/24 21:11:07;;;;;;;4.50;3.50;;;13.40;39.70;;;;;;10264945;28;20340;-74
2022/04/24 21:16:11;;;;;;;2.90;2.70;;;13.30;39.70;;;;;;10257492;28;20721;-74
2022/04/24 21:21:15;;;;;;;3.50;3.30;;;13.30;40.40;;;;;;10261147;28;20259;-74
2022/04/24 21:26:18;;;;;;;3.90;3.60;;;13.30;39.80;;;;;;10260454;28;20711;-76
2022/04/24 21:31:22;;;;;;;5.77;4.17;;;13.20;39.90;;;;;;10258218;28;20672;-73
2022/04/24 21:36:26;;;;;;;4.93;4.53;;;13.20;40.60;;;;;;10262518;28;20232;-75
2022/04/24 21:41:29;;;;;;;5.47;5.07;;;13.10;40.20;;;;;;10258670;28;20235;-73
2022/04/24 21:46:33;;;;;;;5.80;5.30;;;13.10;40.40;;;;;;10257840;28;20236;-74
2022/04/24 21:51:37;;;;;;;6.00;5.50;;;13.10;40.70;;;;;;10254586;28;20247;-74
2022/04/24 21:56:40;;;;;;;6.00;5.50;;;13.10;40.50;;;;;;10254942;28;20719;-74
2022/04/24 22:07:08;;;;;;;6.67;6.10;;;13.10;41.10;;;;;;10256772;28;20763;-74
2022/04/24 22:12:11;;;;;;;6.90;6.30;;;13.00;40.60;;;;;;10256253;28;20636;-73
2022/04/24 22:17:15;;;;;;;7.27;6.67;;;13.00;40.80;;;;;;10255322;28;20323;-74
2022/04/24 22:27:46;;;;;;;8.00;7.30;;;13.00;40.90;;;;;;10261731;28;20227;-74
2022/04/24 22:32:51;;;;;;;8.13;7.43;;;12.90;41.00;;;;;;10259208;28;20228;-74
2022/04/24 22:37:54;;;;;;;8.20;7.27;;;12.90;41.50;;;;;;10258726;28;20231;-74
2022/04/24 22:42:58;;;;;;;8.30;7.60;;;13.00;41.10;;;;;;10259002;28;20246;-74
2022/04/24 22:48:02;;;;;;;9.07;8.17;;;12.90;41.00;;;;;;10262014;28;20307;-74
2022/04/24 22:53:06;;;;;;;9.63;8.83;;;12.90;41.60;;;;;;10264476;28;20236;-73
2022/04/24 22:58:09;;;;;;;10.57;9.57;;;12.90;41.20;;;;;;10265930;28;20322;-74
2022/04/24 23:03:14;;;;;;;10.23;9.33;;;12.90;41.40;;;;;;10260984;28;20754;-73
2022/04/24 23:08:17;;;;;;;11.10;10.13;;;12.90;41.70;;;;;;10267255;28;20234;-74
2022/04/24 23:13:22;;;;;;;10.93;10.00;;;12.90;41.30;;;;;;10263037;28;20236;-74
2022/04/24 23:23:47;;;;;;;12.90;11.57;;;12.80;41.90;;;;;;10263599;28;20720;-73
2022/04/24 23:28:50;;;;;;;13.23;12.13;;;12.80;41.40;;;;;;10263885;28;20232;-74
2022/04/24 23:33:55;;;;;;;13.33;12.13;;;12.80;41.70;;;;;;10263832;28;20614;-74
2022/04/24 23:38:58;;;;;;;11.90;10.87;;;12.80;42.40;;;;;;10263604;28;20287;-74
2022/04/24 23:44:01;;;;;;;13.00;11.90;;;12.90;41.70;;;;;;10262854;28;20242;-74
2022/04/24 23:49:06;;;;;;;11.83;10.83;;;12.80;41.60;;;;;;10265208;28;20315;-74
2022/04/24 23:54:09;;;;;;;11.30;10.30;;;12.80;42.30;;;;;;10269277;28;20263;-74
2022/04/24 23:59:12;;;;;;;11.23;10.33;;;12.80;41.60;;;;;;10261468;28;20236;-74
